createdAt,value
2019-05-25T00:01:26.056Z,74.42
2019-05-25T00:04:14.246Z,74.62
2019-05-25T00:07:02.362Z,75.18
2019-05-25T00:09:50.743Z,75.00
2019-05-25T00:12:39.286Z,75.27
2019-05-25T00:15:29.508Z,75.36
2019-05-25T00:18:17.411Z,75.14
2019-05-25T00:21:05.192Z,75.96
2019-05-25T00:23:52.691Z,76.22
2019-05-25T00:26:41.654Z,76.21
2019-05-25T00:29:30.190Z,76.32
2019-05-25T00:32:20.197Z,76.29
2019-05-25T00:35:08.346Z,76.17
2019-05-25T00:37:56.067Z,76.45
2019-05-25T00:40:44.983Z,77.11
2019-05-25T00:43:32.724Z,76.59
2019-05-25T00:46:21.227Z,76.55
2019-05-25T00:49:09.525Z,76.57
2019-05-25T00:51:57.093Z,76.34
2019-05-25T00:54:45.501Z,76.92
2019-05-25T00:57:33.498Z,77.16
2019-05-25T01:00:21.227Z,77.45
2019-05-25T01:03:08.679Z,77.54
2019-05-25T01:05:58.347Z,76.72
2019-05-25T01:08:46.473Z,77.00
2019-05-25T01:11:34.645Z,76.97
2019-05-25T01:14:22.029Z,77.05
2019-05-25T01:17:10.386Z,77.26
2019-05-25T01:19:58.055Z,77.75
2019-05-25T01:22:47.883Z,77.36
2019-05-25T01:25:33.542Z,77.40
2019-05-25T01:28:21.781Z,77.54
2019-05-25T01:31:10.016Z,77.72
2019-05-25T01:33:57.858Z,77.40
2019-05-25T01:36:46.057Z,77.34
2019-05-25T01:39:33.854Z,77.42
2019-05-25T01:42:29.572Z,77.26
2019-05-25T01:45:17.526Z,77.14
2019-05-25T01:48:05.282Z,77.41
2019-05-25T01:50:52.890Z,77.00
2019-05-25T01:53:40.487Z,77.12
2019-05-25T01:56:27.979Z,77.08
2019-05-25T01:59:16.279Z,76.92
2019-05-25T02:02:04.084Z,76.89
2019-05-25T02:04:52.522Z,76.52
2019-05-25T02:07:40.814Z,76.79
2019-05-25T02:10:29.528Z,76.52
2019-05-25T02:13:17.577Z,76.76
2019-05-25T02:16:05.159Z,76.67
2019-05-25T02:18:53.048Z,76.38
2019-05-25T02:21:40.423Z,75.99
2019-05-25T02:24:28.171Z,75.71
2019-05-25T02:27:15.934Z,76.00
2019-05-25T02:30:03.840Z,76.02
2019-05-25T02:32:51.972Z,75.93
2019-05-25T02:35:40.026Z,75.73
2019-05-25T02:38:27.291Z,75.52
2019-05-25T02:41:15.591Z,75.50
2019-05-25T02:44:04.152Z,75.93
2019-05-25T02:46:51.779Z,76.25
2019-05-25T02:49:41.196Z,75.90
2019-05-25T02:52:30.507Z,75.66
2019-05-25T02:55:33.589Z,75.53
2019-05-25T02:58:10.934Z,75.27
2019-05-25T03:01:01.236Z,75.39
2019-05-25T03:03:49.391Z,75.16
2019-05-25T03:06:37.573Z,75.50
2019-05-25T03:09:25.345Z,75.68
2019-05-25T03:12:13.095Z,75.62
2019-05-25T03:15:01.369Z,75.82
2019-05-25T03:17:49.016Z,76.05
2019-05-25T03:20:37.159Z,76.54
2019-05-25T03:23:25.145Z,76.37
2019-05-25T03:26:12.940Z,76.42
2019-05-25T03:29:00.307Z,76.36
2019-05-25T03:31:47.961Z,76.41
2019-05-25T03:34:35.776Z,76.25
2019-05-25T03:37:24.054Z,76.55
2019-05-25T03:40:11.882Z,76.74
2019-05-25T03:42:59.594Z,76.50
2019-05-25T03:45:47.184Z,75.25
2019-05-25T03:48:34.844Z,75.17
2019-05-25T03:51:22.500Z,75.12
2019-05-25T03:54:10.333Z,75.21
2019-05-25T03:56:58.003Z,74.49
2019-05-25T03:59:45.842Z,74.29
2019-05-25T04:02:34.072Z,74.15
2019-05-25T04:05:22.168Z,73.80
2019-05-25T04:08:10.510Z,74.18
2019-05-25T04:10:58.204Z,74.85
2019-05-25T04:13:46.452Z,74.79
2019-05-25T04:16:34.234Z,74.67
2019-05-25T04:19:22.581Z,74.76
2019-05-25T04:22:10.076Z,74.47
2019-05-25T04:24:58.344Z,74.07
2019-05-25T04:27:46.018Z,74.16
2019-05-25T04:30:33.815Z,73.75
2019-05-25T04:33:21.444Z,73.71
2019-05-25T04:36:09.407Z,74.35
2019-05-25T04:38:57.058Z,73.44
2019-05-25T04:41:44.945Z,73.17
2019-05-25T04:44:33.193Z,73.10
2019-05-25T04:47:26.837Z,72.43
2019-05-25T04:50:09.471Z,72.70
2019-05-25T04:52:57.276Z,72.91
2019-05-25T04:55:45.188Z,72.90
2019-05-25T04:58:32.755Z,72.71
2019-05-25T05:01:22.617Z,72.77
2019-05-25T05:04:08.396Z,72.58
2019-05-25T05:06:55.990Z,72.80
2019-05-25T05:09:44.230Z,72.74
2019-05-25T05:12:31.873Z,72.67
2019-05-25T05:15:20.066Z,72.48
2019-05-25T05:18:07.932Z,72.85
2019-05-25T05:20:55.873Z,72.91
2019-05-25T05:23:43.366Z,72.48
2019-05-25T05:26:31.147Z,72.94
2019-05-25T05:29:19.388Z,72.33
2019-05-25T05:32:07.560Z,72.71
2019-05-25T05:34:55.736Z,72.08
2019-05-25T05:37:43.505Z,71.84
2019-05-25T05:40:31.379Z,72.13
2019-05-25T05:43:19.640Z,71.82
2019-05-25T05:46:07.806Z,71.77
2019-05-25T05:48:55.588Z,71.44
2019-05-25T05:51:43.343Z,72.05
2019-05-25T05:54:31.882Z,71.93
2019-05-25T05:57:19.520Z,72.06
2019-05-25T06:00:07.409Z,72.19
2019-05-25T06:02:55.046Z,72.68
2019-05-25T06:05:43.065Z,72.48
2019-05-25T06:08:30.799Z,73.00
2019-05-25T06:11:18.667Z,73.40
2019-05-25T06:14:06.213Z,73.74
2019-05-25T06:16:53.725Z,74.05
2019-05-25T06:19:42.232Z,74.83
2019-05-25T06:22:30.042Z,75.04
2019-05-25T06:25:17.932Z,75.51
2019-05-25T06:28:05.729Z,76.18
2019-05-25T06:30:53.851Z,76.79
2019-05-25T06:33:42.368Z,77.12
2019-05-25T06:36:29.990Z,76.95
2019-05-25T06:39:17.678Z,77.28
2019-05-25T06:42:05.927Z,76.86
2019-05-25T06:44:53.721Z,76.56
2019-05-25T06:47:41.264Z,77.08
2019-05-25T06:50:28.884Z,77.54
2019-05-25T06:53:16.383Z,77.46
2019-05-25T06:56:04.132Z,77.32
2019-05-25T06:58:51.937Z,77.23
2019-05-25T07:01:39.600Z,76.55
2019-05-25T07:04:27.563Z,76.49
2019-05-25T07:07:15.100Z,75.47
2019-05-25T07:10:03.625Z,75.91
2019-05-25T07:12:51.751Z,75.72
2019-05-25T07:15:39.506Z,75.42
2019-05-25T07:18:27.137Z,75.35
2019-05-25T07:21:14.956Z,75.52
2019-05-25T07:24:02.586Z,75.37
2019-05-25T07:26:50.501Z,75.03
2019-05-25T07:29:38.680Z,74.58
2019-05-25T07:32:26.501Z,74.73
2019-05-25T07:35:14.212Z,74.00
2019-05-25T07:38:02.000Z,74.60
2019-05-25T07:40:49.308Z,73.90
2019-05-25T07:43:37.483Z,73.75
2019-05-25T07:46:25.764Z,74.44
2019-05-25T07:49:13.735Z,74.26
2019-05-25T07:52:02.792Z,73.98
2019-05-25T07:54:49.311Z,73.16
2019-05-25T07:57:37.021Z,73.05
2019-05-25T08:00:25.283Z,72.62
2019-05-25T08:03:13.005Z,72.11
2019-05-25T08:06:00.668Z,71.73
2019-05-25T08:08:48.623Z,70.85
2019-05-25T08:11:36.339Z,70.43
2019-05-25T08:14:23.862Z,70.23
2019-05-25T08:17:11.952Z,70.89
2019-05-25T08:19:59.409Z,69.73
2019-05-25T08:22:47.025Z,69.51
2019-05-25T08:25:35.191Z,69.29
2019-05-25T08:28:32.071Z,69.11
2019-05-25T08:31:10.988Z,68.66
2019-05-25T08:33:58.384Z,67.35
2019-05-25T08:36:46.329Z,67.16
2019-05-25T08:39:34.684Z,67.11
2019-05-25T08:42:22.385Z,66.44
2019-05-25T08:45:10.145Z,65.25
2019-05-25T08:47:58.575Z,64.22
2019-05-25T08:50:46.045Z,64.94
2019-05-25T08:53:41.328Z,64.69
2019-05-25T08:56:22.606Z,65.84
2019-05-25T08:59:10.237Z,65.41
2019-05-25T09:01:57.874Z,64.92
2019-05-25T09:04:45.718Z,64.39
2019-05-25T09:07:33.924Z,65.26
2019-05-25T09:10:21.652Z,64.06
2019-05-25T09:13:09.753Z,63.64
2019-05-25T09:15:58.148Z,61.39
2019-05-25T09:18:45.883Z,62.21
2019-05-25T09:21:33.529Z,60.79
2019-05-25T09:24:21.059Z,58.89
2019-05-25T09:27:08.834Z,58.07
2019-05-25T09:29:56.995Z,59.08
2019-05-25T09:32:44.632Z,60.26
2019-05-25T09:35:32.209Z,60.08
2019-05-25T09:38:19.853Z,60.64
2019-05-25T09:41:07.512Z,60.83
2019-05-25T09:43:55.009Z,60.66
2019-05-25T09:46:42.732Z,59.78
2019-05-25T09:49:30.711Z,58.87
2019-05-25T09:52:18.155Z,59.24
2019-05-25T09:55:06.119Z,57.78
2019-05-25T09:57:53.559Z,57.25
2019-05-25T10:00:41.893Z,58.84
2019-05-25T10:03:29.519Z,59.70
2019-05-25T10:06:17.355Z,59.67
2019-05-25T10:09:06.491Z,60.08
2019-05-25T10:11:57.509Z,60.21
2019-05-25T10:14:45.577Z,59.00
2019-05-25T10:17:33.201Z,59.28
2019-05-25T10:20:21.662Z,57.78
2019-05-25T10:23:09.591Z,58.05
2019-05-25T10:25:57.977Z,57.48
2019-05-25T10:28:45.481Z,56.24
2019-05-25T10:31:33.152Z,56.95
2019-05-25T10:34:20.877Z,56.18
2019-05-25T10:37:08.912Z,53.87
2019-05-25T10:39:56.356Z,54.69
2019-05-25T10:42:43.895Z,52.72
2019-05-25T10:45:31.641Z,53.44
2019-05-25T10:48:19.030Z,54.03
2019-05-25T10:51:06.374Z,53.14
2019-05-25T10:53:54.614Z,52.61
2019-05-25T10:56:43.012Z,51.90
2019-05-25T10:59:31.221Z,51.02
2019-05-25T11:02:18.774Z,51.98
2019-05-25T11:05:06.562Z,52.57
2019-05-25T11:07:54.107Z,51.85
2019-05-25T11:10:41.662Z,53.14
2019-05-25T11:13:29.686Z,52.24
2019-05-25T11:16:17.538Z,52.25
2019-05-25T11:19:05.194Z,52.09
2019-05-25T11:21:52.642Z,51.86
2019-05-25T11:24:40.552Z,50.57
2019-05-25T11:27:28.521Z,50.62
2019-05-25T11:30:16.437Z,50.88
2019-05-25T11:33:03.685Z,50.01
2019-05-25T11:35:51.312Z,49.71
2019-05-25T11:38:39.091Z,50.42
2019-05-25T11:41:27.037Z,50.60
2019-05-25T11:44:14.930Z,50.41
2019-05-25T11:47:02.126Z,51.01
2019-05-25T11:49:49.345Z,52.85
2019-05-25T11:52:36.891Z,53.39
2019-05-25T11:55:24.735Z,53.17
2019-05-25T11:58:12.161Z,54.38
2019-05-25T12:00:59.956Z,54.72
2019-05-25T12:03:47.605Z,55.50
2019-05-25T12:06:34.854Z,56.39
2019-05-25T12:09:22.659Z,56.79
2019-05-25T12:12:10.263Z,55.57
2019-05-25T12:14:57.839Z,55.37
2019-05-25T12:17:45.395Z,56.64
2019-05-25T12:20:33.435Z,55.90
2019-05-25T12:23:24.376Z,55.43
2019-05-25T12:26:12.133Z,55.89
2019-05-25T12:29:00.149Z,55.67
2019-05-25T12:31:47.509Z,54.92
2019-05-25T12:34:35.097Z,56.12
2019-05-25T12:37:23.065Z,55.43
2019-05-25T12:40:10.463Z,55.21
2019-05-25T12:42:58.497Z,54.47
2019-05-25T12:45:46.147Z,55.66
2019-05-25T12:48:33.875Z,53.55
2019-05-25T12:51:21.273Z,54.39
2019-05-25T12:54:08.565Z,54.34
2019-05-25T12:56:55.785Z,54.93
2019-05-25T12:59:43.346Z,54.92
2019-05-25T13:02:31.410Z,54.74
2019-05-25T13:05:32.869Z,56.32
2019-05-25T13:08:06.797Z,56.89
2019-05-25T13:10:54.559Z,57.37
2019-05-25T13:13:42.774Z,57.89
2019-05-25T13:16:30.993Z,58.82
2019-05-25T13:19:18.585Z,58.25
2019-05-25T13:22:05.956Z,57.98
2019-05-25T13:24:53.778Z,58.53
2019-05-25T13:27:41.535Z,58.35
2019-05-25T13:30:29.595Z,58.07
2019-05-25T13:33:17.578Z,58.23
2019-05-25T13:36:06.499Z,55.17
2019-05-25T13:38:54.373Z,56.47
2019-05-25T13:41:41.919Z,56.33
2019-05-25T13:44:30.090Z,55.48
2019-05-25T13:47:17.646Z,55.10
2019-05-25T13:50:06.385Z,54.82
2019-05-25T13:52:53.945Z,55.96
2019-05-25T13:55:41.600Z,55.74
2019-05-25T13:58:29.737Z,55.32
2019-05-25T14:01:27.960Z,55.05
2019-05-25T14:04:21.540Z,54.65
2019-05-25T14:07:08.881Z,55.18
2019-05-25T14:09:57.308Z,54.89
2019-05-25T14:12:45.012Z,54.49
2019-05-25T14:15:32.569Z,53.38
2019-05-25T14:18:20.292Z,53.43
2019-05-25T14:21:08.833Z,53.62
2019-05-25T14:23:56.563Z,53.65
2019-05-25T14:26:44.410Z,53.37
2019-05-25T14:29:32.491Z,53.67
2019-05-25T14:32:20.385Z,54.59
2019-05-25T14:35:08.690Z,54.38
2019-05-25T14:37:57.229Z,54.99
2019-05-25T14:40:44.791Z,55.11
2019-05-25T14:43:32.494Z,55.74
2019-05-25T14:46:27.871Z,56.04
2019-05-25T14:49:08.341Z,56.62
2019-05-25T14:51:55.999Z,56.38
2019-05-25T14:54:44.165Z,57.03
2019-05-25T14:57:32.545Z,57.60
2019-05-25T15:00:20.119Z,56.95
2019-05-25T15:03:08.545Z,57.09
2019-05-25T15:05:56.421Z,57.40
2019-05-25T15:08:44.979Z,56.76
2019-05-25T15:11:33.187Z,56.34
2019-05-25T15:14:21.468Z,55.74
2019-05-25T15:17:09.217Z,54.94
2019-05-25T15:19:57.387Z,55.38
2019-05-25T15:22:46.962Z,55.15
2019-05-25T15:25:36.029Z,55.30
2019-05-25T15:28:25.353Z,55.67
2019-05-25T15:31:13.259Z,55.70
2019-05-25T15:34:01.495Z,55.73
2019-05-25T15:36:50.155Z,56.04
2019-05-25T15:39:38.722Z,55.98
2019-05-25T15:42:29.315Z,56.67
2019-05-25T15:45:17.229Z,56.59
2019-05-25T15:48:05.152Z,54.85
2019-05-25T15:50:53.199Z,54.34
2019-05-25T15:53:40.987Z,54.39
2019-05-25T15:56:28.542Z,54.40
2019-05-25T15:59:16.431Z,55.08
2019-05-25T16:02:04.248Z,54.93
2019-05-25T16:04:52.603Z,54.75
2019-05-25T16:07:41.520Z,55.79
2019-05-25T16:10:29.417Z,56.07
2019-05-25T16:13:17.497Z,55.69
2019-05-25T16:16:05.188Z,55.23
2019-05-25T16:18:52.920Z,55.58
2019-05-25T16:21:40.836Z,54.27
2019-05-25T16:24:29.364Z,53.33
2019-05-25T16:27:16.813Z,53.70
2019-05-25T16:30:05.465Z,53.63
2019-05-25T16:33:11.605Z,54.39
2019-05-25T16:35:41.315Z,54.83
2019-05-25T16:38:28.954Z,55.65
2019-05-25T16:41:16.619Z,56.15
2019-05-25T16:44:04.328Z,56.50
2019-05-25T16:46:51.963Z,57.27
2019-05-25T16:49:39.784Z,57.30
2019-05-25T16:52:27.535Z,57.75
2019-05-25T16:55:15.976Z,58.11
2019-05-25T16:58:03.425Z,58.04
2019-05-25T17:00:51.131Z,58.19
2019-05-25T17:03:38.771Z,57.82
2019-05-25T17:06:27.026Z,57.88
2019-05-25T17:09:14.451Z,57.93
2019-05-25T17:12:02.487Z,58.00
2019-05-25T17:14:50.308Z,57.69
2019-05-25T17:17:38.048Z,56.80
2019-05-25T17:20:26.180Z,56.98
2019-05-25T17:23:14.142Z,56.13
2019-05-25T17:26:02.055Z,56.59
2019-05-25T17:28:50.433Z,56.68
2019-05-25T17:31:38.342Z,56.89
2019-05-25T17:34:26.071Z,56.89
2019-05-25T17:37:14.167Z,56.58
2019-05-25T17:40:01.504Z,55.67
2019-05-25T17:42:48.848Z,53.44
2019-05-25T17:45:36.530Z,51.27
2019-05-25T17:48:24.448Z,50.16
2019-05-25T17:51:11.855Z,49.24
2019-05-25T17:53:59.414Z,49.01
2019-05-25T17:56:46.985Z,48.60
2019-05-25T17:59:35.308Z,49.39
2019-05-25T18:02:23.032Z,48.88
2019-05-25T18:05:10.640Z,48.30
2019-05-25T18:07:58.835Z,50.09
2019-05-25T18:10:53.339Z,50.42
2019-05-25T18:13:34.668Z,50.00
2019-05-25T18:16:22.497Z,47.02
2019-05-25T18:19:10.351Z,45.98
2019-05-25T18:21:59.119Z,42.17
2019-05-25T18:24:45.702Z,42.59
2019-05-25T18:27:33.960Z,44.19
2019-05-25T18:30:21.858Z,46.06
2019-05-25T18:33:10.020Z,48.29
2019-05-25T18:35:58.159Z,50.10
2019-05-25T18:38:46.026Z,51.91
2019-05-25T18:41:33.559Z,52.99
2019-05-25T18:44:21.134Z,53.89
2019-05-25T18:47:08.885Z,54.69
2019-05-25T18:49:56.555Z,55.14
2019-05-25T18:52:44.274Z,55.60
2019-05-25T18:55:31.902Z,55.66
2019-05-25T18:58:19.340Z,55.65
2019-05-25T19:01:07.036Z,56.08
2019-05-25T19:03:54.885Z,56.57
2019-05-25T19:06:42.252Z,56.75
2019-05-25T19:09:30.357Z,57.06
2019-05-25T19:12:18.571Z,57.08
2019-05-25T19:15:06.839Z,57.17
2019-05-25T19:17:54.468Z,57.42
2019-05-25T19:20:42.107Z,57.58
2019-05-25T19:23:29.736Z,57.70
2019-05-25T19:26:19.389Z,58.03
2019-05-25T19:29:05.841Z,58.40
2019-05-25T19:31:52.727Z,58.76
2019-05-25T19:34:40.460Z,59.28
2019-05-25T19:37:27.980Z,59.54
2019-05-25T19:40:15.358Z,59.88
2019-05-25T19:43:03.227Z,60.28
2019-05-25T19:45:51.229Z,60.94
2019-05-25T19:48:39.441Z,61.12
2019-05-25T19:51:27.691Z,61.41
2019-05-25T19:54:15.626Z,61.78
2019-05-25T19:57:03.349Z,62.34
2019-05-25T19:59:50.948Z,62.79
2019-05-25T20:02:38.442Z,63.11
2019-05-25T20:05:25.849Z,63.48
2019-05-25T20:08:13.694Z,64.04
2019-05-25T20:11:01.699Z,64.33
2019-05-25T20:13:49.650Z,64.72
2019-05-25T20:16:37.424Z,65.31
2019-05-25T20:19:25.132Z,65.84
2019-05-25T20:22:13.257Z,66.23
2019-05-25T20:25:00.727Z,66.72
2019-05-25T20:27:49.026Z,67.08
2019-05-25T20:30:36.789Z,67.48
2019-05-25T20:33:28.017Z,67.79
2019-05-25T20:36:12.563Z,67.85
2019-05-25T20:39:00.471Z,67.96
2019-05-25T20:41:48.015Z,68.31
2019-05-25T20:44:35.547Z,68.53
2019-05-25T20:47:23.484Z,68.72
2019-05-25T20:50:11.392Z,68.97
2019-05-25T20:52:59.648Z,69.50
2019-05-25T20:55:47.508Z,69.73
2019-05-25T20:58:35.218Z,69.70
2019-05-25T21:01:23.178Z,69.79
2019-05-25T21:04:10.869Z,69.77
2019-05-25T21:06:59.286Z,69.96
2019-05-25T21:09:46.882Z,70.34
2019-05-25T21:12:34.724Z,70.58
2019-05-25T21:15:22.450Z,70.40
2019-05-25T21:18:10.708Z,70.47
2019-05-25T21:20:58.439Z,70.49
2019-05-25T21:23:46.032Z,70.76
2019-05-25T21:26:33.592Z,70.84
2019-05-25T21:29:21.694Z,71.08
2019-05-25T21:32:10.082Z,71.27
2019-05-25T21:34:58.106Z,71.37
2019-05-25T21:37:45.586Z,71.39
2019-05-25T21:40:33.279Z,71.59
2019-05-25T21:43:20.687Z,71.83
2019-05-25T21:46:08.631Z,72.05
2019-05-25T21:48:56.789Z,72.45
2019-05-25T21:51:44.392Z,72.45
2019-05-25T21:54:32.042Z,72.86
2019-05-25T21:57:19.540Z,73.15
2019-05-25T22:00:07.552Z,73.53
2019-05-25T22:02:55.608Z,73.42
2019-05-25T22:05:44.018Z,73.70
2019-05-25T22:08:31.812Z,73.71
2019-05-25T22:11:19.677Z,73.88
2019-05-25T22:14:07.398Z,73.97
2019-05-25T22:16:55.132Z,74.32
2019-05-25T22:19:42.655Z,74.83
2019-05-25T22:22:30.908Z,74.65
2019-05-25T22:25:18.316Z,74.72
2019-05-25T22:28:12.664Z,74.94
2019-05-25T22:31:00.431Z,75.36
2019-05-25T22:33:48.382Z,75.33
2019-05-25T22:36:40.851Z,75.48
2019-05-25T22:39:24.438Z,75.86
2019-05-25T22:42:12.196Z,76.30
2019-05-25T22:45:01.721Z,76.53
2019-05-25T22:47:49.566Z,76.81
2019-05-25T22:50:37.488Z,77.11
2019-05-25T22:53:25.302Z,77.31
2019-05-25T22:56:13.098Z,77.44
2019-05-25T22:59:00.638Z,77.28
2019-05-25T23:01:48.650Z,77.57
2019-05-25T23:04:36.401Z,77.82
2019-05-25T23:07:24.508Z,77.90
2019-05-25T23:10:12.616Z,77.80
2019-05-25T23:13:00.428Z,77.89
2019-05-25T23:15:47.975Z,77.93
2019-05-25T23:18:36.472Z,77.96
2019-05-25T23:21:24.413Z,78.03
2019-05-25T23:24:12.258Z,78.22
2019-05-25T23:26:59.992Z,78.28
2019-05-25T23:29:48.022Z,78.26
2019-05-25T23:32:36.117Z,78.25
2019-05-25T23:35:23.514Z,78.53
2019-05-25T23:38:11.712Z,78.65
2019-05-25T23:40:59.508Z,78.74
2019-05-25T23:43:47.411Z,79.00
2019-05-25T23:46:35.746Z,78.85
2019-05-25T23:49:23.500Z,79.28
2019-05-25T23:52:11.242Z,79.33
2019-05-25T23:54:58.876Z,79.88
2019-05-25T23:57:46.789Z,79.78
